Hauptseite
METAR-TAF:

METAR-TAF

Flughäfen :

Flughafen Rom-Fiumicino

Rom-Fiumicino, Italien

Breite: 41-48N, Länge: 012-14E, Höhe: 2 m

Beobachtung

Neuester Wetterbericht von vor 28 Minuten, um 18:20 UTC
Wind 8 kt aus Nord/Nordost
Temperatur 12°C
Luftfeuchtigkeit 54%
Luftdruck 1019 hPa
Sichtweite 10 km oder mehr
keine Wolken unter 1500 m und keine Kumulonimbus oder Gewitterwolken

METAR: LIRF 161820Z 03008KT CAVOK 12/03 Q1019 NOSIG

Zeit: 19:48 (18:48 UTC)

Prognose

Neuester Wetterbericht von vor 1 Stunde und 48 Minuten, um 17:00 UTC
Gültige Prognose vom 16 um 18 UTC bis 17 um 24 UTC
Wind 12 kt aus Nordost
Sichtweite 10 km oder mehr
Aufgelockert bewölkt in der Höhe von 3000 ft
Zeitweise
vom 16 um 18 UTC bis 16 um 20 UTC
Gewitter, Regen

TAF: LIRF 161700Z 1618/1724 04012KT 9999 SCT030 TEMPO 1618/1620 TSRA

Wetterbeobachtungen und Prognosen von mehr als 4000 Flughäfen (METAR und TAF Bericht).

Die verfügbaren Stationen werden durch gelbe und rote Markierungen auf der Karte dargestellt.

Führen Sie die Maus auf sie, um den Namen der Station zu sehen.

Darauf klicken, um die Beobachtung von Wetterbeobachtungen und Prognosen zu sehen.

Um die Karte zu ändern : klicken Sie auf den grünen Tasten mit einem schwarzen Kreuz Zum Vergrößern, auf den grünen Button mit einem Gedankenstrich zu verkleinern, oder auf die grünen Pfeile für benachbarte Karten.


METAR-TAF: